Time;durP1;ratioP1;P1;durP2;ratioP2;P2;SDS_P1;SDS_P2;PMS_P1;PMS_P2;Temp;Humidity;BMP_temperature;BMP_pressure;BME280_temperature;BME280_humidity;BME280_pressure;Samples;Min_cycle;Max_cycle;Signal;HPM_P1;HPM_P2
2021/10/26 00:00:17;;;;;;;8.48;3.40;;;;;;;0.45;71.59;99798.72;5053486;28;20095;-62
2021/10/26 00:02:43;;;;;;;6.47;3.40;;;;;;;0.48;71.77;99806.22;5053580;28;20049;-63
2021/10/26 00:05:09;;;;;;;5.15;3.25;;;;;;;0.47;71.81;99801.97;5037542;28;20041;-63
2021/10/26 00:07:35;;;;;;;6.63;3.38;;;;;;;0.48;71.79;99800.19;5053473;28;20037;-63
2021/10/26 00:10:01;;;;;;;4.90;3.10;;;;;;;0.44;72.24;99799.69;5053952;28;20107;-62
2021/10/26 00:12:28;;;;;;;6.25;3.72;;;;;;;0.39;71.83;99787.13;5052797;28;20040;-62
2021/10/26 00:14:54;;;;;;;5.40;3.25;;;;;;;0.41;72.28;99782.59;5053715;28;20087;-63
2021/10/26 00:17:20;;;;;;;5.10;3.28;;;;;;;0.41;72.29;99781.75;5069265;28;20062;-64
2021/10/26 00:19:46;;;;;;;6.97;3.47;;;;;;;0.45;72.41;99785.69;5064470;28;20532;-62
2021/10/26 00:22:12;;;;;;;5.10;3.30;;;;;;;0.44;72.21;99784.88;5039324;28;20048;-63
2021/10/26 00:24:38;;;;;;;6.22;3.65;;;;;;;0.46;72.22;99779.47;5073365;28;20156;-61
2021/10/26 00:27:04;;;;;;;5.45;3.40;;;;;;;0.39;72.95;99778.50;5073699;28;20053;-60
2021/10/26 00:29:30;;;;;;;7.25;3.42;;;;;;;0.37;72.70;99781.25;5055457;28;20040;-63
2021/10/26 00:31:55;;;;;;;6.50;3.42;;;;;;;0.40;72.69;99773.13;5073513;28;20048;-63
2021/10/26 00:34:21;;;;;;;6.32;3.80;;;;;;;0.32;73.45;99767.88;5072308;28;20033;-62
2021/10/26 00:36:47;;;;;;;5.80;3.40;;;;;;;0.37;73.03;99777.84;5055286;28;20077;-62
2021/10/26 00:39:13;;;;;;;4.70;3.65;;;;;;;0.35;73.57;99772.78;5071827;28;20032;-62
2021/10/26 00:41:39;;;;;;;7.95;3.50;;;;;;;0.33;73.29;99769.53;5071791;28;20070;-63
2021/10/26 00:44:05;;;;;;;7.55;3.60;;;;;;;0.35;73.20;99777.97;5071587;28;20140;-63
2021/10/26 00:46:34;;;;;;;7.18;4.15;;;;;;;0.34;73.25;99770.34;5022452;28;20131;-63
2021/10/26 00:49:00;;;;;;;7.20;3.42;;;;;;;0.33;73.79;99769.53;5072886;28;20486;-62
2021/10/26 00:51:28;;;;;;;6.75;4.00;;;;;;;0.35;73.76;99774.56;5072251;28;20143;-61
2021/10/26 00:53:57;;;;;;;6.50;3.75;;;;;;;0.35;74.05;99757.13;5054659;28;20029;-63
2021/10/26 00:56:23;;;;;;;7.55;4.03;;;;;;;0.37;74.02;99762.19;5038934;28;20094;-61
2021/10/26 00:58:50;;;;;;;6.78;4.03;;;;;;;0.33;74.13;99753.88;5054858;28;20036;-62
2021/10/26 01:01:17;;;;;;;9.35;4.47;;;;;;;0.33;74.05;99759.09;5038725;28;20044;-63
2021/10/26 01:03:42;;;;;;;6.68;4.18;;;;;;;0.34;74.47;99757.31;5038260;28;20530;-63
2021/10/26 01:06:09;;;;;;;7.20;4.28;;;;;;;0.33;74.04;99753.06;5055110;28;20057;-62
2021/10/26 01:08:35;;;;;;;7.93;4.30;;;;;;;0.37;74.11;99749.16;5072424;28;20167;-62
2021/10/26 01:11:01;;;;;;;7.25;3.70;;;;;;;0.38;74.20;99750.78;5073070;28;20486;-62
2021/10/26 01:13:27;;;;;;;8.10;4.50;;;;;;;0.37;74.28;99742.13;5071398;28;20051;-62
2021/10/26 01:15:58;;;;;;;6.95;4.25;;;;;;;0.37;74.52;99744.75;5072591;28;20040;-63
2021/10/26 01:18:30;;;;;;;7.15;4.43;;;;;;;0.39;74.80;99737.59;5054699;28;20055;-62
2021/10/26 01:20:56;;;;;;;8.85;4.28;;;;;;;0.41;74.68;99729.59;5071331;28;20048;-62
2021/10/26 01:23:25;;;;;;;6.95;4.00;;;;;;;0.39;74.09;99732.38;5071158;28;20874;-62
2021/10/26 01:25:51;;;;;;;8.65;3.90;;;;;;;0.43;74.38;99730.25;5037465;28;20057;-62
2021/10/26 01:28:17;;;;;;;12.25;5.05;;;;;;;0.40;74.65;99726.16;5038000;28;20494;-63
2021/10/26 01:30:44;;;;;;;7.90;4.47;;;;;;;0.41;74.51;99719.16;5054420;28;20059;-61
2021/10/26 01:33:33;;;;;;;7.32;4.35;;;;;;;0.38;74.36;99715.09;5054786;28;20081;-62
2021/10/26 01:36:11;;;;;;;8.25;4.50;;;;;;;0.34;74.72;99716.38;5054433;28;20045;-63
2021/10/26 01:38:38;;;;;;;7.78;4.72;;;;;;;0.34;74.46;99712.97;5070673;28;20040;-62
2021/10/26 01:41:07;;;;;;;6.80;4.22;;;;;;;0.38;74.43;99716.88;5069999;28;20076;-61
2021/10/26 01:43:37;;;;;;;7.88;4.32;;;;;;;0.39;74.86;99721.94;5038147;28;20216;-62
2021/10/26 01:46:03;;;;;;;10.02;5.00;;;;;;;0.41;74.53;99711.31;5054188;28;20052;-61
2021/10/26 01:48:38;;;;;;;10.90;4.80;;;;;;;0.38;74.50;99712.50;5053397;28;20083;-63
2021/10/26 01:51:04;;;;;;;7.05;4.38;;;;;;;0.38;74.44;99709.88;5070824;28;20044;-62
2021/10/26 01:53:30;;;;;;;11.45;5.63;;;;;;;0.37;74.73;99717.84;5053724;28;20036;-61
2021/10/26 01:55:56;;;;;;;9.75;5.07;;;;;;;0.40;74.26;99704.50;5053904;28;20059;-62
2021/10/26 01:58:30;;;;;;;9.35;4.97;;;;;;;0.35;74.65;99691.13;5053802;28;20139;-62
2021/10/26 02:01:15;;;;;;;8.18;4.60;;;;;;;0.41;74.61;99709.56;5056916;28;20052;-62
2021/10/26 02:03:41;;;;;;;8.05;4.65;;;;;;;0.42;74.92;99702.53;5053650;28;20049;-62
2021/10/26 02:06:07;;;;;;;7.68;4.50;;;;;;;0.40;74.90;99697.47;5053920;28;20040;-62
2021/10/26 02:08:33;;;;;;;10.85;4.30;;;;;;;0.43;74.50;99699.75;5053704;28;20201;-63
2021/10/26 02:11:00;;;;;;;5.78;3.80;;;;;;;0.44;74.91;99693.59;5053823;28;20044;-61
2021/10/26 02:13:26;;;;;;;10.43;4.32;;;;;;;0.44;74.38;99693.59;5070421;28;20040;-64
2021/10/26 02:15:54;;;;;;;6.45;4.18;;;;;;;0.43;75.03;99691.13;5066905;28;20045;-61
2021/10/26 02:18:20;;;;;;;8.45;3.63;;;;;;;0.41;75.00;99688.69;5033423;28;20044;-63
2021/10/26 02:20:47;;;;;;;10.55;4.38;;;;;;;0.37;74.98;99689.19;5066327;28;20146;-62
2021/10/26 02:23:15;;;;;;;7.25;3.97;;;;;;;0.38;75.01;99675.16;5065982;28;20076;-63
2021/10/26 02:25:41;;;;;;;11.18;4.15;;;;;;;0.39;74.85;99680.22;5032648;28;20061;-61
2021/10/26 02:28:07;;;;;;;8.02;4.53;;;;;;;0.35;74.84;99680.69;5049521;28;20056;-64
2021/10/26 02:30:34;;;;;;;6.85;3.80;;;;;;;0.33;75.07;99680.06;5050597;28;20040;-62
2021/10/26 02:32:59;;;;;;;6.45;3.78;;;;;;;0.31;75.32;99675.00;5069471;28;20505;-63
2021/10/26 02:35:26;;;;;;;7.47;3.83;;;;;;;0.34;75.06;99663.44;5069463;28;20141;-61
2021/10/26 02:37:52;;;;;;;7.28;3.90;;;;;;;0.31;75.23;99661.16;5052710;28;20513;-63
2021/10/26 02:40:19;;;;;;;10.15;4.43;;;;;;;0.31;75.00;99664.56;5069522;28;20045;-61
2021/10/26 02:42:45;;;;;;;10.50;4.47;;;;;;;0.29;75.64;99660.50;5070682;28;20409;-63
2021/10/26 02:45:11;;;;;;;7.80;4.03;;;;;;;0.26;75.73;99659.03;5069237;28;20036;-62
2021/10/26 02:47:38;;;;;;;7.35;4.50;;;;;;;0.24;75.97;99650.56;5071062;28;20047;-62
2021/10/26 02:50:06;;;;;;;8.73;4.35;;;;;;;0.23;75.37;99652.34;5053083;28;20244;-61
2021/10/26 02:52:33;;;;;;;7.88;4.68;;;;;;;0.20;75.96;99655.28;5069447;28;20036;-63
2021/10/26 02:55:00;;;;;;;6.90;4.38;;;;;;;0.17;75.96;99647.78;5070771;28;20052;-62
2021/10/26 02:57:26;;;;;;;8.18;4.25;;;;;;;0.18;76.12;99643.41;5070847;28;20071;-63
2021/10/26 02:59:51;;;;;;;10.98;5.07;;;;;;;0.19;76.19;99648.44;5069306;28;20037;-61
2021/10/26 03:02:17;;;;;;;9.90;4.68;;;;;;;0.19;75.98;99648.44;5052792;28;20051;-63
2021/10/26 03:04:43;;;;;;;10.10;4.95;;;;;;;0.18;76.29;99646.81;5069397;28;20048;-62
2021/10/26 03:07:09;;;;;;;8.43;4.22;;;;;;;0.14;76.39;99644.69;5052765;28;20120;-63
2021/10/26 03:09:35;;;;;;;8.40;4.43;;;;;;;0.14;76.53;99642.91;5049469;28;20048;-63
2021/10/26 03:12:02;;;;;;;8.05;4.68;;;;;;;0.10;76.19;99651.22;5050886;28;20112;-63
2021/10/26 03:14:28;;;;;;;9.25;4.70;;;;;;;0.11;76.62;99648.44;5039979;28;20094;-62
2021/10/26 03:16:54;;;;;;;11.38;4.68;;;;;;;0.09;76.38;99646.97;5052587;28;20049;-64
2021/10/26 03:19:20;;;;;;;8.20;4.25;;;;;;;0.09;76.58;99645.19;5052675;28;20040;-62
2021/10/26 03:21:46;;;;;;;6.65;4.30;;;;;;;0.10;76.34;99646.81;5052751;28;20063;-62
2021/10/26 03:24:12;;;;;;;10.02;4.30;;;;;;;0.04;76.18;99642.25;5069021;28;20056;-62
2021/10/26 03:26:38;;;;;;;8.77;4.40;;;;;;;0.02;77.01;99635.56;5070559;28;20044;-62
2021/10/26 03:29:07;;;;;;;11.55;5.10;;;;;;;0.02;76.72;99638.19;5052378;28;20032;-63
2021/10/26 03:31:35;;;;;;;8.52;4.43;;;;;;;0.01;76.58;99637.38;5036438;28;20048;-63
2021/10/26 03:34:19;;;;;;;10.90;4.10;;;;;;;0.08;76.72;99627.09;5070313;28;20090;-63
2021/10/26 03:36:45;;;;;;;10.18;4.53;;;;;;;0.06;76.49;99629.88;5052555;28;20037;-60
2021/10/26 03:39:11;;;;;;;9.32;4.53;;;;;;;-0.04;77.00;99616.19;5035443;28;20498;-61
2021/10/26 03:41:37;;;;;;;7.13;4.10;;;;;;;0.05;76.72;99624.81;5069210;28;20043;-66
2021/10/26 03:44:04;;;;;;;9.68;5.10;;;;;;;0.04;76.65;99621.41;5052170;28;20048;-62
2021/10/26 03:46:33;;;;;;;9.02;3.95;;;;;;;0.04;76.91;99624.00;5019233;28;20046;-63
2021/10/26 03:48:59;;;;;;;6.35;4.15;;;;;;;0.02;77.20;99623.34;5019323;28;20037;-61
2021/10/26 03:51:27;;;;;;;8.70;4.32;;;;;;;0.04;76.71;99626.63;5069313;28;20051;-62
2021/10/26 03:53:53;;;;;;;8.30;4.13;;;;;;;0.04;76.78;99620.59;5052238;28;20490;-62
2021/10/26 03:56:20;;;;;;;9.52;4.38;;;;;;;0.00;77.28;99614.91;5052493;28;20093;-62
2021/10/26 03:58:47;;;;;;;7.22;4.03;;;;;;;-0.02;76.82;99612.44;5052123;28;20158;-62
2021/10/26 04:01:22;;;;;;;8.88;4.88;;;;;;;0.00;77.27;99614.91;5052358;28;20529;-62
2021/10/26 04:03:48;;;;;;;7.03;4.00;;;;;;;-0.02;76.79;99615.06;5068570;28;20040;-63
2021/10/26 04:06:18;;;;;;;9.65;4.63;;;;;;;-0.06;77.58;99621.59;5068995;28;20063;-62
2021/10/26 04:08:54;;;;;;;11.57;4.45;;;;;;;-0.05;77.41;99619.78;5003728;28;20036;-63
2021/10/26 04:11:26;;;;;;;11.57;4.72;;;;;;;-0.01;77.47;99610.66;5039150;28;20127;-62
2021/10/26 04:13:57;;;;;;;8.35;4.07;;;;;;;0.03;76.69;99616.34;5055598;28;20509;-61
2021/10/26 04:16:23;;;;;;;10.23;5.82;;;;;;;0.06;76.91;99602.97;5039793;28;20133;-62
2021/10/26 04:18:49;;;;;;;8.88;3.80;;;;;;;0.08;76.95;99604.44;5055696;28;20037;-65
2021/10/26 04:21:17;;;;;;;11.32;4.30;;;;;;;0.11;76.42;99601.50;5073996;28;20070;-62
2021/10/26 04:23:50;;;;;;;10.43;5.07;;;;;;;0.15;76.50;99594.19;5072139;28;20131;-63
2021/10/26 04:26:18;;;;;;;9.30;4.78;;;;;;;0.17;76.55;99598.25;5055674;28;20067;-62
2021/10/26 04:28:44;;;;;;;9.63;4.57;;;;;;;0.17;76.89;99597.44;5072220;28;20048;-63
2021/10/26 04:31:12;;;;;;;8.80;4.85;;;;;;;0.16;76.88;99606.25;5045793;28;20555;-64
2021/10/26 04:33:38;;;;;;;11.98;4.93;;;;;;;0.15;76.64;99599.41;5050100;28;20043;-63
2021/10/26 04:36:05;;;;;;;12.98;4.95;;;;;;;0.15;76.40;99597.63;5051606;28;20544;-62
2021/10/26 04:38:31;;;;;;;10.02;4.53;;;;;;;0.22;76.76;99600.38;5039592;28;20128;-62
2021/10/26 04:40:57;;;;;;;9.05;4.20;;;;;;;0.23;76.83;99602.00;5068976;28;20076;-63
2021/10/26 04:43:27;;;;;;;12.32;4.47;;;;;;;0.25;76.33;99596.63;5054546;28;20422;-62
2021/10/26 04:45:54;;;;;;;11.18;4.72;;;;;;;0.29;76.43;99601.31;5055481;28;20617;-63
2021/10/26 04:48:22;;;;;;;8.07;4.10;;;;;;;0.37;75.90;99592.69;5072377;28;20045;-63
2021/10/26 04:50:49;;;;;;;8.68;4.50;;;;;;;0.40;75.72;99611.41;5055062;28;20116;-62
2021/10/26 04:53:15;;;;;;;8.57;4.15;;;;;;;0.40;75.70;99600.97;5073319;28;20044;-64
2021/10/26 04:55:49;;;;;;;6.10;3.97;;;;;;;0.47;75.51;99601.13;5073377;28;20055;-62
2021/10/26 04:58:16;;;;;;;7.82;3.92;;;;;;;0.55;75.54;99584.66;5055227;28;20040;-61
2021/10/26 05:00:43;;;;;;;8.65;4.28;;;;;;;0.59;74.82;99581.56;5038374;28;20048;-62
2021/10/26 05:03:11;;;;;;;9.80;4.13;;;;;;;0.61;75.11;99582.19;5055659;28;20054;-62
2021/10/26 05:05:39;;;;;;;8.65;3.70;;;;;;;0.60;75.09;99585.78;5054708;28;20052;-63
2021/10/26 05:08:05;;;;;;;10.52;4.65;;;;;;;0.60;75.06;99583.16;5073145;28;20047;-66
2021/10/26 05:10:32;;;;;;;8.27;4.75;;;;;;;0.72;74.99;99585.41;5070915;28;20528;-65
2021/10/26 05:12:58;;;;;;;10.65;4.13;;;;;;;0.70;74.48;99574.34;5072849;28;20413;-67
2021/10/26 05:15:53;;;;;;;7.53;4.10;;;;;;;0.87;74.31;99578.50;5058784;28;20064;-62
2021/10/26 05:18:40;;;;;;;9.15;4.32;;;;;;;0.93;73.45;99588.25;5025579;28;20037;-64
2021/10/26 05:21:40;;;;;;;7.75;3.95;;;;;;;0.97;73.29;99589.56;5032766;28;20052;-64
2021/10/26 05:24:34;;;;;;;7.10;4.15;;;;;;;1.06;73.41;99590.31;5043083;28;20505;-65
2021/10/26 05:27:19;;;;;;;6.60;3.72;;;;;;;1.14;73.07;99593.69;5071306;28;20052;-65
2021/10/26 05:29:45;;;;;;;8.07;4.30;;;;;;;1.15;73.16;99586.69;5054050;28;20045;-65
2021/10/26 05:32:12;;;;;;;6.95;4.22;;;;;;;1.09;73.26;99593.41;5054526;28;20502;-66
2021/10/26 05:34:38;;;;;;;8.18;4.10;;;;;;;1.13;72.54;99591.28;5072067;28;20074;-63
2021/10/26 05:37:05;;;;;;;10.65;4.85;;;;;;;1.09;73.35;99584.78;5071071;28;20067;-62
2021/10/26 05:39:33;;;;;;;8.93;4.75;;;;;;;1.19;72.96;99587.97;5070830;28;20164;-62
2021/10/26 05:41:59;;;;;;;11.13;4.78;;;;;;;1.22;72.49;99582.41;5072373;28;20405;-67
2021/10/26 05:44:25;;;;;;;7.85;4.28;;;;;;;1.32;72.37;99584.78;5037410;28;20040;-63
2021/10/26 05:46:50;;;;;;;10.02;4.00;;;;;;;1.42;72.21;99595.03;5054076;28;20041;-68
2021/10/26 05:49:16;;;;;;;6.97;3.95;;;;;;;1.39;72.04;99584.94;5072044;28;20497;-66
2021/10/26 05:51:42;;;;;;;7.03;4.40;;;;;;;1.47;71.87;99587.47;5072110;28;20040;-66
2021/10/26 05:54:08;;;;;;;8.05;4.82;;;;;;;1.47;71.78;99585.69;5053801;28;20040;-63
2021/10/26 05:56:34;;;;;;;7.25;4.25;;;;;;;1.55;71.46;99592.66;5053780;28;20044;-65
2021/10/26 05:59:00;;;;;;;11.00;4.13;;;;;;;1.66;71.09;99589.63;5071429;28;20131;-64
2021/10/26 06:01:25;;;;;;;8.07;3.90;;;;;;;1.66;70.33;99583.59;5070638;28;20049;-65
2021/10/26 06:03:52;;;;;;;9.65;5.13;;;;;;;1.66;70.66;99596.66;5053580;28;20119;-64
2021/10/26 06:06:18;;;;;;;8.73;4.47;;;;;;;1.74;70.93;99594.00;5053242;28;20048;-65
2021/10/26 06:08:45;;;;;;;9.10;4.97;;;;;;;1.80;69.99;99590.69;5071429;28;20460;-64
2021/10/26 06:11:13;;;;;;;8.30;4.80;;;;;;;1.91;69.71;99584.22;5021113;28;20079;-65
2021/10/26 06:13:59;;;;;;;10.15;5.72;;;;;;;1.91;69.76;99578.97;5053654;28;20377;-63
2021/10/26 06:16:26;;;;;;;8.45;4.43;;;;;;;1.98;69.31;99583.34;5071484;28;20056;-65
2021/10/26 06:18:52;;;;;;;8.25;4.40;;;;;;;2.09;69.40;99583.88;5053327;28;20047;-64
2021/10/26 06:21:19;;;;;;;9.68;5.18;;;;;;;2.12;69.09;99576.53;5053666;28;20044;-63
2021/10/26 06:23:45;;;;;;;9.38;4.97;;;;;;;2.22;68.82;99568.41;5053464;28;20048;-65
2021/10/26 06:26:10;;;;;;;8.63;5.07;;;;;;;2.29;68.43;99566.69;5070122;28;20508;-65
2021/10/26 06:28:45;;;;;;;13.52;5.10;;;;;;;2.40;68.26;99563.63;5053141;28;20469;-67
2021/10/26 06:31:11;;;;;;;9.65;4.80;;;;;;;2.48;67.75;99557.53;5053232;28;20074;-64
2021/10/26 06:33:44;;;;;;;8.40;4.55;;;;;;;2.63;67.72;99562.75;5069517;28;20074;-67
2021/10/26 06:36:17;;;;;;;7.97;4.80;;;;;;;2.72;67.19;99565.06;5070186;28;20048;-66
2021/10/26 06:38:45;;;;;;;8.85;4.28;;;;;;;2.77;66.89;99576.81;5052804;28;20470;-65
2021/10/26 06:41:11;;;;;;;9.57;4.80;;;;;;;2.81;66.79;99570.22;5069792;28;20510;-66
2021/10/26 06:44:06;;;;;;;7.90;4.82;;;;;;;2.93;66.23;99566.13;5049454;28;20510;-66
2021/10/26 06:46:41;;;;;;;7.18;4.43;;;;;;;3.01;66.12;99567.84;5064533;28;20041;-67
2021/10/26 06:49:27;;;;;;;10.65;5.10;;;;;;;2.90;66.33;99569.94;5030686;28;20043;-66
2021/10/26 06:52:12;;;;;;;8.77;4.82;;;;;;;3.04;65.68;99572.72;5053047;28;20041;-64
2021/10/26 06:54:57;;;;;;;7.32;4.60;;;;;;;3.08;65.79;99576.59;5054517;28;20123;-64
2021/10/26 06:57:43;;;;;;;11.55;4.68;;;;;;;3.09;65.73;99567.72;5053511;28;20131;-65
2021/10/26 07:00:19;;;;;;;8.30;4.65;;;;;;;3.07;65.98;99575.78;5068957;28;20131;-65
2021/10/26 07:03:21;;;;;;;8.05;4.43;;;;;;;3.09;65.47;99570.34;5008568;28;20633;-65
2021/10/26 07:06:03;;;;;;;11.50;4.93;;;;;;;3.17;65.72;99575.47;5027466;28;20049;-65
2021/10/26 07:08:39;;;;;;;8.57;4.57;;;;;;;3.18;65.58;99569.25;5026131;28;20396;-67
2021/10/26 07:11:24;;;;;;;10.82;5.10;;;;;;;3.32;65.41;99573.63;4997412;28;20144;-66
2021/10/26 07:13:50;;;;;;;10.18;4.28;;;;;;;3.44;64.40;99563.47;5009847;28;20083;-67
2021/10/26 07:16:16;;;;;;;9.35;4.22;;;;;;;3.54;64.08;99568.41;4994380;28;20502;-64
2021/10/26 07:18:42;;;;;;;9.43;4.82;;;;;;;3.48;64.32;99556.06;5009250;28;20050;-67
2021/10/26 07:21:08;;;;;;;9.23;4.63;;;;;;;3.55;64.63;99557.72;4991902;28;20610;-66
2021/10/26 07:24:00;;;;;;;9.20;5.10;;;;;;;3.72;64.17;99547.00;5024183;28;20511;-64
2021/10/26 07:26:49;;;;;;;11.02;5.40;;;;;;;3.85;63.83;99553.16;5017128;28;20057;-65
2021/10/26 07:29:17;;;;;;;10.07;4.78;;;;;;;3.91;63.01;99553.38;5005833;28;20147;-65
2021/10/26 07:31:44;;;;;;;10.65;4.70;;;;;;;3.97;63.05;99557.88;5007059;28;20045;-65
2021/10/26 07:34:13;;;;;;;12.88;4.68;;;;;;;4.05;62.52;99565.59;5021352;28;20088;-66
2021/10/26 07:36:43;;;;;;;12.02;4.90;;;;;;;4.12;62.59;99556.00;5048521;28;20490;-66
2021/10/26 07:42:06;;;;;;;9.48;5.00;;;;;;;4.27;62.46;99559.31;5049291;28;20564;-65
2021/10/26 07:44:58;;;;;;;12.52;5.40;;;;;;;4.38;62.05;99554.53;5043672;28;20159;-65
2021/10/26 07:47:25;;;;;;;8.70;4.65;;;;;;;4.39;62.34;99550.91;5032209;28;20052;-65
2021/10/26 07:49:53;;;;;;;12.02;5.65;;;;;;;4.47;61.10;99545.50;5030716;28;20070;-64
2021/10/26 07:52:25;;;;;;;13.73;5.07;;;;;;;4.56;61.47;99546.97;5029498;28;20044;-65
2021/10/26 07:55:05;;;;;;;10.70;5.25;;;;;;;4.58;60.78;99544.94;5032535;28;20198;-64
2021/10/26 07:57:32;;;;;;;10.88;4.78;;;;;;;4.69;60.54;99538.34;5048845;28;20072;-65
2021/10/26 07:59:58;;;;;;;9.70;5.10;;;;;;;4.76;60.82;99531.28;5030858;28;20087;-66
2021/10/26 08:02:25;;;;;;;12.15;5.15;;;;;;;4.77;60.25;99536.38;5030865;28;20049;-67
2021/10/26 08:05:10;;;;;;;7.68;5.40;;;;;;;4.90;60.28;99540.84;5049486;28;20095;-64
2021/10/26 08:07:39;;;;;;;8.20;5.22;;;;;;;4.93;59.46;99529.13;5035158;28;20045;-65
2021/10/26 08:10:06;;;;;;;11.05;5.38;;;;;;;5.01;59.64;99521.91;5022949;28;20061;-66
2021/10/26 08:12:34;;;;;;;10.65;5.25;;;;;;;5.01;60.44;99519.28;5033915;28;20044;-65
2021/10/26 08:15:00;;;;;;;12.00;5.43;;;;;;;5.03;59.35;99515.63;5032026;28;20052;-65
2021/10/26 08:17:29;;;;;;;9.90;5.38;;;;;;;5.04;59.60;99522.50;5049675;28;20041;-65
2021/10/26 08:19:55;;;;;;;8.00;4.85;;;;;;;5.00;59.95;99515.03;5064752;28;20044;-63
2021/10/26 08:22:22;;;;;;;8.23;4.65;;;;;;;5.11;59.25;99523.34;5070912;28;20033;-65
2021/10/26 08:24:54;;;;;;;14.73;6.78;;;;;;;5.23;59.10;99524.38;5052978;28;20170;-64
2021/10/26 08:27:22;;;;;;;8.88;5.03;;;;;;;5.23;59.18;99525.19;5054625;28;20501;-67
2021/10/26 08:30:12;;;;;;;10.32;5.40;;;;;;;5.20;59.74;99522.13;5052665;28;20497;-64
2021/10/26 08:32:52;;;;;;;11.70;5.30;;;;;;;5.33;58.60;99522.19;5070386;28;20052;-65
2021/10/26 08:37:50;;;;;;;8.82;4.88;;;;;;;5.41;59.39;99521.16;5067214;28;20078;-64
2021/10/26 08:40:17;;;;;;;10.15;5.38;;;;;;;5.43;58.61;99519.16;5052288;28;20045;-63
2021/10/26 08:42:43;;;;;;;9.45;4.60;;;;;;;5.52;58.14;99512.69;5069453;28;20181;-64
2021/10/26 08:45:09;;;;;;;10.02;5.30;;;;;;;5.58;57.94;99516.31;5069832;28;20483;-64
2021/10/26 08:47:39;;;;;;;8.93;5.18;;;;;;;5.59;58.39;99503.00;5037736;28;20166;-63
2021/10/26 08:50:32;;;;;;;10.20;5.15;;;;;;;5.75;58.17;99503.59;5046997;28;20541;-65
2021/10/26 08:52:59;;;;;;;24.23;6.75;;;;;;;5.77;57.29;99489.22;5031101;28;20057;-63
2021/10/26 08:55:44;;;;;;;10.00;4.32;;;;;;;5.84;57.13;99490.03;5048330;28;20061;-64
2021/10/26 08:58:32;;;;;;;13.57;5.28;;;;;;;5.91;57.48;99490.00;5048662;28;20526;-63
2021/10/26 09:01:03;;;;;;;12.32;5.22;;;;;;;5.94;57.04;99480.94;5032242;28;20057;-64
2021/10/26 09:03:36;;;;;;;14.05;5.18;;;;;;;5.94;56.81;99471.22;5032310;28;20048;-63
2021/10/26 09:06:05;;;;;;;9.43;5.28;;;;;;;5.99;57.02;99466.16;5032247;28;20095;-63
2021/10/26 09:08:35;;;;;;;6.93;4.63;;;;;;;6.03;57.22;99472.63;5033093;28;20048;-63
2021/10/26 09:17:27;;;;;;;10.88;5.53;;;;;;;6.05;56.62;99467.97;5049141;28;20049;-63
2021/10/26 09:20:15;;;;;;;10.02;5.07;;;;;;;6.07;56.63;99462.50;5047936;28;20048;-62
2021/10/26 09:22:51;;;;;;;12.50;5.30;;;;;;;6.06;56.26;99458.22;5037714;28;20086;-63
2021/10/26 09:25:20;;;;;;;8.30;5.03;;;;;;;6.05;56.37;99462.69;5070108;28;20087;-62
2021/10/26 09:27:49;;;;;;;7.93;4.60;;;;;;;6.11;56.69;99471.59;5053999;28;20040;-62
2021/10/26 09:30:19;;;;;;;10.18;5.00;;;;;;;6.10;56.10;99457.63;5052833;28;20056;-63
2021/10/26 09:32:47;;;;;;;7.93;4.70;;;;;;;6.16;56.14;99455.19;5053503;28;20440;-63
2021/10/26 09:35:18;;;;;;;8.90;4.88;;;;;;;6.22;55.79;99452.53;5053336;28;20044;-63
2021/10/26 09:37:54;;;;;;;10.88;5.30;;;;;;;6.28;55.75;99437.75;5069660;28;20111;-62
2021/10/26 09:40:20;;;;;;;7.50;4.53;;;;;;;6.23;55.59;99440.97;5070065;28;20072;-63
2021/10/26 09:42:48;;;;;;;10.48;5.03;;;;;;;6.27;55.42;99434.31;5069408;28;20076;-63
2021/10/26 09:45:23;;;;;;;11.98;5.28;;;;;;;6.31;55.25;99432.06;5052250;28;20048;-64
2021/10/26 09:47:49;;;;;;;8.57;5.00;;;;;;;6.30;55.03;99431.25;5067868;28;20044;-63
2021/10/26 09:50:15;;;;;;;12.20;5.90;;;;;;;6.35;55.38;99428.81;5051750;28;20091;-65
2021/10/26 09:52:44;;;;;;;9.82;5.32;;;;;;;6.41;55.08;99416.63;5068826;28;20114;-64
2021/10/26 09:55:18;;;;;;;8.10;4.97;;;;;;;6.43;54.54;99422.47;5068372;28;20044;-62
2021/10/26 09:57:56;;;;;;;11.60;5.25;;;;;;;6.47;54.94;99415.81;5051018;28;20504;-63
2021/10/26 10:00:31;;;;;;;8.85;5.40;;;;;;;6.47;55.16;99415.81;5068338;28;20094;-63
2021/10/26 10:03:17;;;;;;;8.70;5.03;;;;;;;6.56;54.83;99419.81;5067487;28;20145;-62
2021/10/26 10:05:51;;;;;;;8.38;5.05;;;;;;;6.62;54.66;99406.78;5032472;28;20040;-64
2021/10/26 10:08:23;;;;;;;8.43;4.90;;;;;;;6.70;54.32;99407.34;5067218;28;20048;-64
2021/10/26 10:10:54;;;;;;;7.95;5.00;;;;;;;6.76;53.97;99398.59;5069478;28;20516;-62
2021/10/26 10:13:21;;;;;;;;;;;;;;;6.76;54.16;99395.16;5070035;28;20040;-62
2021/10/26 10:15:48;;;;;;;10.75;4.97;;;;;;;6.70;53.98;99391.53;5067567;28;20536;-64
2021/10/26 10:18:19;;;;;;;10.18;5.43;;;;;;;6.79;53.74;99389.47;5067732;28;20059;-63
2021/10/26 10:20:50;;;;;;;8.30;5.28;;;;;;;6.90;53.09;99385.34;5048231;28;20147;-63
2021/10/26 10:23:17;;;;;;;9.77;4.72;;;;;;;7.04;53.15;99382.41;5068748;28;20125;-62
2021/10/26 10:25:45;;;;;;;9.55;4.68;;;;;;;7.13;52.76;99382.97;5067427;28;20063;-62
2021/10/26 10:28:12;;;;;;;9.73;5.13;;;;;;;7.21;52.85;99385.34;5015263;28;20051;-61
2021/10/26 10:30:38;;;;;;;10.65;5.05;;;;;;;7.28;52.33;99375.53;5048180;28;20726;-62
2021/10/26 10:33:05;;;;;;;9.18;5.35;;;;;;;7.24;52.39;99376.19;5048182;28;20040;-64
2021/10/26 10:35:32;;;;;;;8.60;4.90;;;;;;;7.25;52.25;99373.31;5066602;28;20052;-62
2021/10/26 10:38:01;;;;;;;10.85;4.80;;;;;;;7.31;52.44;99368.22;5051126;28;20179;-63
2021/10/26 10:40:31;;;;;;;14.20;4.85;;;;;;;7.35;51.68;99364.91;5068184;28;20051;-64
2021/10/26 10:42:57;;;;;;;14.48;5.65;;;;;;;7.32;52.24;99367.97;5050338;28;20040;-61
2021/10/26 10:45:32;;;;;;;12.18;4.70;;;;;;;7.26;52.30;99371.50;5034437;28;20056;-62
2021/10/26 10:47:59;;;;;;;9.10;5.18;;;;;;;7.27;52.14;99352.81;5069902;28;20041;-64
2021/10/26 10:50:37;;;;;;;11.25;5.15;;;;;;;7.27;51.85;99363.38;5068128;28;20076;-61
2021/10/26 10:53:13;;;;;;;12.73;5.70;;;;;;;7.31;51.96;99352.41;5050406;28;20067;-61
2021/10/26 10:55:42;;;;;;;11.68;5.45;;;;;;;7.34;51.62;99352.75;5066198;28;20056;-63
2021/10/26 10:58:21;;;;;;;10.25;5.22;;;;;;;7.40;51.53;99351.09;5049700;28;20032;-63
2021/10/26 11:00:47;;;;;;;15.52;5.25;;;;;;;7.41;51.07;99350.06;5049677;28;20055;-62
2021/10/26 11:03:29;;;;;;;10.77;5.30;;;;;;;7.36;50.81;99350.72;5039245;28;20045;-64
2021/10/26 11:05:55;;;;;;;10.07;5.35;;;;;;;7.40;51.30;99349.25;5048124;28;20470;-63
2021/10/26 11:08:39;;;;;;;12.00;4.90;;;;;;;7.44;51.61;99352.25;5016149;28;20131;-63
2021/10/26 11:11:05;;;;;;;12.40;5.53;;;;;;;7.51;53.53;99358.28;5047118;28;20049;-62
2021/10/26 11:13:34;;;;;;;13.38;5.50;;;;;;;7.56;51.58;99341.78;5047875;28;20075;-63
2021/10/26 11:16:05;;;;;;;8.55;5.30;;;;;;;7.56;50.60;99341.78;5038876;28;20136;-62
2021/10/26 11:18:40;;;;;;;10.52;4.93;;;;;;;7.60;50.44;99333.25;5049490;28;20060;-62
2021/10/26 11:21:30;;;;;;;10.75;5.15;;;;;;;7.66;50.39;99331.56;5049177;28;20135;-62
2021/10/26 11:23:59;;;;;;;11.32;5.13;;;;;;;7.66;50.51;99316.53;5013698;28;20614;-64
2021/10/26 11:26:37;;;;;;;9.10;5.20;;;;;;;7.65;49.78;99328.13;5070393;28;20492;-63
2021/10/26 11:29:11;;;;;;;9.75;5.07;;;;;;;7.64;49.74;99326.50;5068941;28;20044;-63
2021/10/26 11:31:53;;;;;;;13.88;5.57;;;;;;;7.69;49.93;99331.13;5071425;28;20055;-61
2021/10/26 11:34:24;;;;;;;11.68;6.00;;;;;;;7.61;49.54;99326.13;5070097;28;20127;-62
2021/10/26 11:37:09;;;;;;;17.83;5.40;;;;;;;7.66;49.81;99319.16;5071185;28;20314;-63
2021/10/26 11:39:39;;;;;;;10.50;4.85;;;;;;;7.69;50.04;99325.84;5038198;28;20398;-63
2021/10/26 11:42:12;;;;;;;13.82;5.07;;;;;;;7.68;49.54;99319.75;5070248;28;20040;-61
2021/10/26 11:44:37;;;;;;;12.25;5.68;;;;;;;7.71;49.48;99323.78;5071174;28;20508;-62
2021/10/26 11:47:03;;;;;;;8.52;5.28;;;;;;;7.74;49.28;99326.00;5069066;28;20074;-62
2021/10/26 11:49:31;;;;;;;13.48;5.00;;;;;;;7.72;49.18;99317.47;5034429;28;20060;-62
2021/10/26 11:51:59;;;;;;;10.70;4.82;;;;;;;7.76;49.11;99316.00;5066603;28;20040;-63
2021/10/26 11:54:30;;;;;;;11.10;4.82;;;;;;;7.76;49.01;99304.66;5071877;28;20040;-62
2021/10/26 11:57:00;;;;;;;11.77;5.10;;;;;;;7.76;48.88;99302.81;5071723;28;20040;-61
2021/10/26 11:59:32;;;;;;;10.23;4.65;;;;;;;7.74;48.72;99310.16;5053818;28;20036;-61
2021/10/26 12:02:27;;;;;;;11.77;5.25;;;;;;;7.77;48.68;99307.09;5058619;28;20048;-60
2021/10/26 12:04:54;;;;;;;11.68;4.70;;;;;;;7.72;49.04;99296.38;5069229;28;20075;-62